North Walsham, United Kingdom
Current Conditions -  °F | °C
As of 6:20 AM on Friday 31 Oct 2014 (Local Time) from EGSH Reporting Station
Clear Clear  
Wind Chill: 55°   Ceiling: Unl
Heat Index: 55°   Visibility: 6mi
Dew Point: 55°   Wind: 5mph
Humidity: 100%   Direction: 170°S
Pressure: 30.03"   Gusts: NA
Location:  52.82°N, 1.39°E
Report Text: EGSH 310620Z 17004KT 130V210 9000 NSC 13/13 Q1017
Loading
Personal Weather Stations






























Interactive Weather Map New forecast layout! Learn more

10-Day Weather Forecast

Advertisements
Track Severe Weather on mobile